createdAt,value
2018-10-15T00:01:36.437Z,17.40
2018-10-15T00:04:05.441Z,17.30
2018-10-15T00:06:34.013Z,17.30
2018-10-15T00:09:02.564Z,17.30
2018-10-15T00:11:31.094Z,17.30
2018-10-15T00:13:59.599Z,17.30
2018-10-15T00:16:28.512Z,17.30
2018-10-15T00:18:57.069Z,17.30
2018-10-15T00:21:25.612Z,17.20
2018-10-15T00:23:54.105Z,17.20
2018-10-15T00:26:23.293Z,17.30
2018-10-15T00:28:52.152Z,17.20
2018-10-15T00:31:20.664Z,17.20
2018-10-15T00:33:49.778Z,17.30
2018-10-15T00:36:18.853Z,17.20
2018-10-15T00:38:47.709Z,17.20
2018-10-15T00:41:16.223Z,17.20
2018-10-15T00:43:44.705Z,17.20
2018-10-15T00:46:13.549Z,17.20
2018-10-15T00:48:42.416Z,17.20
2018-10-15T00:51:12.817Z,17.10
2018-10-15T00:53:42.344Z,17.10
2018-10-15T00:56:11.208Z,17.10
2018-10-15T00:58:39.916Z,17.10
2018-10-15T01:01:08.428Z,17.10
2018-10-15T01:03:37.363Z,17.10
2018-10-15T01:06:06.661Z,17.10
2018-10-15T01:08:35.521Z,17.10
2018-10-15T01:11:04.544Z,17.10
2018-10-15T01:13:33.390Z,17.10
2018-10-15T01:16:02.226Z,17.00
2018-10-15T01:18:31.073Z,17.00
2018-10-15T01:20:59.912Z,17.00
2018-10-15T01:23:28.743Z,17.00
2018-10-15T01:25:57.945Z,17.00
2018-10-15T01:28:26.866Z,17.00
2018-10-15T01:30:55.389Z,16.90
2018-10-15T01:33:23.980Z,16.90
2018-10-15T01:35:52.521Z,16.90
2018-10-15T01:38:21.057Z,16.90
2018-10-15T01:40:49.946Z,16.90
2018-10-15T01:43:18.465Z,16.90
2018-10-15T01:45:47.013Z,16.90
2018-10-15T01:48:15.546Z,16.90
2018-10-15T01:50:44.431Z,16.80
2018-10-15T01:53:13.629Z,16.80
2018-10-15T01:55:42.169Z,16.80
2018-10-15T01:58:41.915Z,16.70
2018-10-15T02:01:10.756Z,16.70
2018-10-15T02:03:39.287Z,16.70
2018-10-15T02:06:08.537Z,16.70
2018-10-15T02:08:37.535Z,16.70
2018-10-15T02:11:06.110Z,16.70
2018-10-15T02:13:34.637Z,16.60
2018-10-15T02:16:03.177Z,16.60
2018-10-15T02:18:31.753Z,16.60
2018-10-15T02:21:00.644Z,16.50
2018-10-15T02:23:29.162Z,16.50
2018-10-15T02:25:57.714Z,16.50
2018-10-15T02:28:26.321Z,16.40
2018-10-15T02:30:55.562Z,16.50
2018-10-15T02:33:24.469Z,16.50
2018-10-15T02:35:53.124Z,16.50
2018-10-15T02:38:21.650Z,16.40
2018-10-15T02:40:50.710Z,16.30
2018-10-15T02:43:19.281Z,16.30
2018-10-15T02:45:48.301Z,16.30
2018-10-15T02:48:16.905Z,16.20
2018-10-15T02:50:45.436Z,16.20
2018-10-15T02:53:14.025Z,16.20
2018-10-15T02:55:42.561Z,16.10
2018-10-15T02:58:11.443Z,16.10
2018-10-15T03:00:40.032Z,16.10
2018-10-15T03:03:08.888Z,16.10
2018-10-15T03:05:37.448Z,16.10
2018-10-15T03:08:06.458Z,16.20
2018-10-15T03:10:35.012Z,16.10
2018-10-15T03:13:03.907Z,16.10
2018-10-15T03:15:32.803Z,16.10
2018-10-15T03:18:01.332Z,16.10
2018-10-15T03:20:29.920Z,16.10
2018-10-15T03:22:58.789Z,16.10
2018-10-15T03:25:27.704Z,16.10
2018-10-15T03:27:56.299Z,16.10
2018-10-15T03:30:25.293Z,16.00
2018-10-15T03:32:53.871Z,16.00
2018-10-15T03:35:22.729Z,16.00
2018-10-15T03:37:51.284Z,15.90
2018-10-15T03:40:20.128Z,15.90
2018-10-15T03:42:48.964Z,15.90
2018-10-15T03:45:17.494Z,16.00
2018-10-15T03:47:46.030Z,16.00
2018-10-15T03:50:14.542Z,15.90
2018-10-15T03:52:43.403Z,15.90
2018-10-15T03:55:11.931Z,15.90
2018-10-15T03:57:40.461Z,15.90
2018-10-15T04:00:09.552Z,15.90
2018-10-15T04:02:38.465Z,15.80
2018-10-15T04:05:07.219Z,15.90
2018-10-15T04:07:36.593Z,15.80
2018-10-15T04:10:05.693Z,15.80
2018-10-15T04:12:34.308Z,15.80
2018-10-15T04:15:03.260Z,15.80
2018-10-15T04:17:31.772Z,15.80
2018-10-15T04:20:00.331Z,15.80
2018-10-15T04:22:33.668Z,15.70
2018-10-15T04:25:02.899Z,15.70
2018-10-15T04:27:31.790Z,15.70
2018-10-15T04:30:00.346Z,15.60
2018-10-15T04:32:30.179Z,15.70
2018-10-15T04:35:06.847Z,15.70
2018-10-15T04:37:35.361Z,15.70
2018-10-15T04:40:04.787Z,15.70
2018-10-15T04:42:33.689Z,15.70
2018-10-15T04:45:03.261Z,15.70
2018-10-15T04:47:32.101Z,15.60
2018-10-15T04:50:00.743Z,15.60
2018-10-15T04:52:29.421Z,15.60
2018-10-15T04:54:58.343Z,15.60
2018-10-15T04:57:26.883Z,15.50
2018-10-15T04:59:56.090Z,15.40
2018-10-15T05:02:24.997Z,15.40
2018-10-15T05:04:53.507Z,15.40
2018-10-15T05:07:22.353Z,15.40
2018-10-15T05:09:50.857Z,15.40
2018-10-15T05:12:20.564Z,15.40
2018-10-15T05:14:49.226Z,15.50
2018-10-15T05:17:18.544Z,15.50
2018-10-15T05:19:47.039Z,15.60
2018-10-15T05:22:16.209Z,15.60
2018-10-15T05:24:44.696Z,15.60
2018-10-15T05:27:13.534Z,15.60
2018-10-15T05:29:42.401Z,15.60
2018-10-15T05:32:10.936Z,15.60
2018-10-15T05:34:41.244Z,15.60
2018-10-15T05:37:10.166Z,15.60
2018-10-15T05:39:38.996Z,15.60
2018-10-15T05:42:08.301Z,15.60
2018-10-15T05:44:37.338Z,15.70
2018-10-15T05:47:06.284Z,15.70
2018-10-15T05:49:34.949Z,15.90
2018-10-15T05:52:03.492Z,15.80
2018-10-15T05:54:32.969Z,15.90
2018-10-15T05:57:02.274Z,15.90
2018-10-15T05:59:30.828Z,15.90
2018-10-15T06:01:59.417Z,15.90
2018-10-15T06:04:28.125Z,15.90
2018-10-15T06:06:56.889Z,15.80
2018-10-15T06:09:25.487Z,15.70
2018-10-15T06:11:54.342Z,15.70
2018-10-15T06:14:22.855Z,15.80
2018-10-15T06:16:51.884Z,15.80
2018-10-15T06:19:20.440Z,15.80
2018-10-15T06:21:49.275Z,15.80
2018-10-15T06:24:18.564Z,15.70
2018-10-15T06:26:47.531Z,15.70
2018-10-15T06:29:16.417Z,15.70
2018-10-15T06:31:45.593Z,15.70
2018-10-15T06:34:14.481Z,15.70
2018-10-15T06:36:43.029Z,15.70
2018-10-15T06:39:11.598Z,15.70
2018-10-15T06:41:40.616Z,15.70
2018-10-15T06:44:09.137Z,15.70
2018-10-15T06:46:38.200Z,15.80
2018-10-15T06:49:06.897Z,15.80
2018-10-15T06:51:36.212Z,15.90
2018-10-15T06:54:05.082Z,15.90
2018-10-15T06:56:34.271Z,16.00
2018-10-15T06:59:03.753Z,16.00
2018-10-15T07:01:33.449Z,16.10
2018-10-15T07:04:04.411Z,16.10
2018-10-15T07:06:33.439Z,16.10
2018-10-15T07:09:03.140Z,16.20
2018-10-15T07:11:31.832Z,16.30
2018-10-15T07:14:00.710Z,16.30
2018-10-15T07:16:29.577Z,16.40
2018-10-15T07:18:58.096Z,16.40
2018-10-15T07:21:26.641Z,16.40
2018-10-15T07:23:55.565Z,16.50
2018-10-15T07:26:24.080Z,16.50
2018-10-15T07:28:54.032Z,16.70
2018-10-15T07:31:22.544Z,16.80
2018-10-15T07:33:51.437Z,16.80
2018-10-15T07:36:21.274Z,16.80
2018-10-15T07:38:50.296Z,16.90
2018-10-15T07:41:19.159Z,17.00
2018-10-15T07:43:47.721Z,17.10
2018-10-15T07:46:16.301Z,17.20
2018-10-15T07:48:45.364Z,17.30
2018-10-15T07:51:14.592Z,17.40
2018-10-15T07:53:43.442Z,17.50
2018-10-15T07:56:12.692Z,17.70
2018-10-15T07:58:41.669Z,17.90
2018-10-15T08:01:10.357Z,18.10
2018-10-15T08:06:14.829Z,18.30
2018-10-15T08:08:46.423Z,18.40
2018-10-15T08:11:18.016Z,18.40
2018-10-15T08:13:47.322Z,18.50
2018-10-15T08:16:18.684Z,18.60
2018-10-15T08:18:50.360Z,18.70
2018-10-15T08:21:20.079Z,18.80
2018-10-15T08:23:48.636Z,18.90
2018-10-15T08:26:18.442Z,18.90
2018-10-15T08:28:47.988Z,19.00
2018-10-15T08:31:21.617Z,19.10
2018-10-15T08:33:50.170Z,19.20
2018-10-15T08:43:17.701Z,19.40
2018-10-15T08:45:46.597Z,19.70
2018-10-15T08:48:15.339Z,19.80
2018-10-15T08:50:43.852Z,19.90
2018-10-15T08:53:13.090Z,19.90
2018-10-15T08:55:41.994Z,20.00
2018-10-15T08:58:11.092Z,20.20
2018-10-15T09:00:45.625Z,20.30
2018-10-15T09:03:14.511Z,20.40
2018-10-15T09:06:05.660Z,20.50
2018-10-15T09:08:41.743Z,20.60
2018-10-15T09:11:15.173Z,20.70
2018-10-15T09:13:52.472Z,20.50
2018-10-15T09:16:46.898Z,20.40
2018-10-15T09:21:56.278Z,20.20
2018-10-15T09:24:25.383Z,20.10
2018-10-15T09:26:55.556Z,20.10
2018-10-15T09:29:24.878Z,20.10
2018-10-15T09:31:53.823Z,20.00
2018-10-15T09:34:22.713Z,19.80
2018-10-15T09:36:51.679Z,19.90
2018-10-15T09:39:20.389Z,19.80
2018-10-15T09:41:49.573Z,19.80
2018-10-15T09:44:18.121Z,19.70
2018-10-15T09:46:46.681Z,19.80
2018-10-15T09:49:15.538Z,19.90
2018-10-15T09:51:44.126Z,20.10
2018-10-15T09:54:15.618Z,20.40
2018-10-15T09:56:44.818Z,20.50
2018-10-15T09:59:13.531Z,20.60
2018-10-15T10:01:47.945Z,20.80
2018-10-15T10:04:16.665Z,21.10
2018-10-15T10:06:47.092Z,21.30
2018-10-15T10:09:15.781Z,21.40
2018-10-15T10:11:44.697Z,21.20
2018-10-15T10:14:13.244Z,21.10
2018-10-15T10:16:42.623Z,21.10
2018-10-15T10:19:12.021Z,21.20
2018-10-15T10:21:40.943Z,21.20
2018-10-15T10:24:09.959Z,21.10
2018-10-15T10:26:39.427Z,21.00
2018-10-15T10:29:08.325Z,21.00
2018-10-15T10:31:37.217Z,21.20
2018-10-15T10:34:19.149Z,21.20
2018-10-15T10:37:07.102Z,21.30
2018-10-15T10:39:35.983Z,21.40
2018-10-15T10:42:04.941Z,21.50
2018-10-15T10:44:33.657Z,21.50
2018-10-15T10:47:02.905Z,21.40
2018-10-15T10:49:31.660Z,21.20
2018-10-15T10:52:01.099Z,21.10
2018-10-15T10:54:29.694Z,21.00
2018-10-15T10:56:58.276Z,20.80
2018-10-15T10:59:26.841Z,20.80
2018-10-15T11:01:55.968Z,21.00
2018-10-15T11:04:28.477Z,21.30
2018-10-15T11:06:57.737Z,21.50
2018-10-15T11:09:26.670Z,21.80
2018-10-15T11:11:55.195Z,21.80
2018-10-15T11:14:24.254Z,21.80
2018-10-15T11:16:52.841Z,21.70
2018-10-15T11:19:21.457Z,21.60
2018-10-15T11:21:50.011Z,21.50
2018-10-15T11:24:19.326Z,21.50
2018-10-15T11:26:47.992Z,21.40
2018-10-15T11:29:16.569Z,21.40
2018-10-15T11:31:45.706Z,21.40
2018-10-15T11:34:14.360Z,21.40
2018-10-15T11:36:43.758Z,21.50
2018-10-15T11:39:13.293Z,21.70
2018-10-15T11:41:41.818Z,22.00
2018-10-15T11:44:10.458Z,22.10
2018-10-15T11:46:39.843Z,22.10
2018-10-15T11:49:08.889Z,22.00
2018-10-15T11:51:38.150Z,21.90
2018-10-15T11:54:07.204Z,21.70
2018-10-15T11:56:36.208Z,21.50
2018-10-15T11:59:10.313Z,21.40
2018-10-15T12:01:39.049Z,21.40
2018-10-15T12:04:08.473Z,21.40
2018-10-15T12:06:38.329Z,21.30
2018-10-15T12:09:12.813Z,21.30
2018-10-15T12:11:42.699Z,21.20
2018-10-15T12:14:11.825Z,21.30
2018-10-15T12:16:42.148Z,21.30
2018-10-15T12:19:10.876Z,21.40
2018-10-15T12:21:39.443Z,21.50
2018-10-15T12:24:07.959Z,21.60
2018-10-15T12:26:37.978Z,21.90
2018-10-15T12:29:06.873Z,22.10
2018-10-15T12:31:36.310Z,22.20
2018-10-15T12:34:09.299Z,22.40
2018-10-15T12:36:38.209Z,22.60
2018-10-15T12:39:08.547Z,22.60
2018-10-15T12:41:37.502Z,22.70
2018-10-15T12:44:06.420Z,22.60
2018-10-15T12:46:35.349Z,22.70
2018-10-15T12:49:03.898Z,22.90
2018-10-15T12:51:32.793Z,22.90
2018-10-15T12:54:01.757Z,22.80
2018-10-15T12:56:31.178Z,22.80
2018-10-15T12:59:00.065Z,22.80
2018-10-15T13:01:28.622Z,22.80
2018-10-15T13:03:57.281Z,22.70
2018-10-15T13:06:26.872Z,22.70
2018-10-15T13:08:56.216Z,22.80
2018-10-15T13:11:24.757Z,22.70
2018-10-15T13:13:53.630Z,22.60
2018-10-15T13:16:22.310Z,22.50
2018-10-15T13:18:50.850Z,22.40
2018-10-15T13:21:19.373Z,22.30
2018-10-15T13:23:47.943Z,22.20
2018-10-15T13:26:16.529Z,22.10
2018-10-15T13:28:46.406Z,22.10
2018-10-15T13:38:15.181Z,22.00
2018-10-15T13:40:43.702Z,21.80
2018-10-15T13:43:12.245Z,21.80
2018-10-15T13:45:41.659Z,21.80
2018-10-15T13:48:10.672Z,21.80
2018-10-15T13:50:39.767Z,21.70
2018-10-15T13:53:08.508Z,21.70
2018-10-15T13:55:37.470Z,21.70
2018-10-15T13:58:06.737Z,21.70
2018-10-15T14:00:39.958Z,21.60
2018-10-15T14:03:09.537Z,21.50
2018-10-15T14:05:38.623Z,21.50
2018-10-15T14:08:07.913Z,21.50
2018-10-15T14:10:36.793Z,21.50
2018-10-15T14:13:07.411Z,21.40
2018-10-15T14:15:36.695Z,21.40
2018-10-15T14:18:06.230Z,21.40
2018-10-15T14:20:36.897Z,21.40
2018-10-15T14:23:06.388Z,21.30
2018-10-15T14:25:36.407Z,21.30
2018-10-15T14:28:05.082Z,21.30
2018-10-15T14:30:33.623Z,21.20
2018-10-15T14:33:02.565Z,21.20
2018-10-15T14:35:32.609Z,21.20
2018-10-15T14:38:01.485Z,21.20
2018-10-15T14:40:31.537Z,21.20
2018-10-15T14:43:01.191Z,21.20
2018-10-15T14:45:30.230Z,21.20
2018-10-15T14:47:59.592Z,21.10
2018-10-15T14:50:29.802Z,21.10
2018-10-15T14:52:58.669Z,21.00
2018-10-15T14:55:27.732Z,21.00
2018-10-15T14:57:56.356Z,20.90
2018-10-15T15:00:25.103Z,21.00
2018-10-15T15:02:53.729Z,21.00
2018-10-15T15:05:23.358Z,20.90
2018-10-15T15:07:52.683Z,20.90
2018-10-15T15:10:32.924Z,20.90
2018-10-15T15:13:12.907Z,20.90
2018-10-15T15:15:42.067Z,20.80
2018-10-15T15:18:10.651Z,20.80
2018-10-15T15:20:39.241Z,20.80
2018-10-15T15:23:07.877Z,20.70
2018-10-15T15:25:36.429Z,20.70
2018-10-15T15:28:05.475Z,20.70
2018-10-15T15:30:34.172Z,20.70
2018-10-15T15:33:02.767Z,20.70
2018-10-15T15:35:32.188Z,20.60
2018-10-15T15:38:01.598Z,20.60
2018-10-15T15:40:30.216Z,20.60
2018-10-15T15:43:02.720Z,20.50
2018-10-15T15:45:31.369Z,20.50
2018-10-15T15:48:00.807Z,20.40
2018-10-15T15:50:29.686Z,20.40
2018-10-15T15:52:59.412Z,20.40
2018-10-15T15:55:28.279Z,20.40
2018-10-15T15:57:57.176Z,20.40
2018-10-15T16:00:25.711Z,20.40
2018-10-15T16:02:54.342Z,20.30
2018-10-15T16:05:24.129Z,20.30
2018-10-15T16:07:53.285Z,20.30
2018-10-15T16:10:22.200Z,20.20
2018-10-15T16:12:51.107Z,20.20
2018-10-15T16:15:20.003Z,20.20
2018-10-15T16:17:48.552Z,20.10
2018-10-15T16:20:17.066Z,20.10
2018-10-15T16:22:46.317Z,20.00
2018-10-15T16:25:15.225Z,19.90
2018-10-15T16:27:44.291Z,19.90
2018-10-15T16:30:14.594Z,19.80
2018-10-15T16:35:26.660Z,19.80
2018-10-15T16:40:35.394Z,19.80
2018-10-15T16:48:36.793Z,19.60
2018-10-15T16:51:06.146Z,19.60
2018-10-15T16:53:42.073Z,19.60
2018-10-15T16:56:12.391Z,19.50
2018-10-15T16:58:43.283Z,19.50
2018-10-15T17:01:12.802Z,19.40
2018-10-15T17:03:42.881Z,19.40
2018-10-15T17:06:12.450Z,19.40
2018-10-15T17:08:41.309Z,19.30
2018-10-15T17:11:11.713Z,19.30
2018-10-15T17:13:41.076Z,19.30
2018-10-15T17:16:10.248Z,19.30
2018-10-15T17:18:39.160Z,19.20
2018-10-15T17:21:17.577Z,19.20
2018-10-15T17:23:46.324Z,19.10
2018-10-15T17:29:14.989Z,18.90
2018-10-15T17:31:44.535Z,18.80
2018-10-15T17:34:13.604Z,18.80
2018-10-15T17:36:42.541Z,18.80
2018-10-15T17:39:12.691Z,18.70
2018-10-15T17:41:45.764Z,18.70
2018-10-15T17:44:15.672Z,18.50
2018-10-15T17:46:44.645Z,18.40
2018-10-15T17:49:13.173Z,18.40
2018-10-15T17:51:41.695Z,18.40
2018-10-15T17:54:10.549Z,18.40
2018-10-15T17:56:39.065Z,18.30
2018-10-15T17:59:10.759Z,18.30
2018-10-15T18:01:39.613Z,18.30
2018-10-15T18:04:08.789Z,18.20
2018-10-15T18:06:38.085Z,18.20
2018-10-15T18:12:15.744Z,18.20
2018-10-15T18:17:35.807Z,18.30
2018-10-15T18:20:05.133Z,18.40
2018-10-15T18:22:34.596Z,18.30
2018-10-15T18:25:03.284Z,18.30
2018-10-15T18:27:33.136Z,18.40
2018-10-15T18:30:02.355Z,18.40
2018-10-15T18:32:31.008Z,18.40
2018-10-15T18:34:59.953Z,18.30
2018-10-15T18:37:29.221Z,18.30
2018-10-15T18:39:58.092Z,18.30
2018-10-15T18:42:26.756Z,18.30
2018-10-15T18:44:55.728Z,18.30
2018-10-15T18:47:24.362Z,18.30
2018-10-15T18:49:52.901Z,18.30
2018-10-15T18:52:21.756Z,18.30
2018-10-15T18:54:50.645Z,18.30
2018-10-15T18:57:19.653Z,18.30
2018-10-15T18:59:48.540Z,18.30
2018-10-15T19:02:17.300Z,18.40
2018-10-15T19:04:45.862Z,18.30
2018-10-15T19:07:15.581Z,18.40
2018-10-15T19:09:44.226Z,18.40
2018-10-15T19:12:13.161Z,18.40
2018-10-15T19:14:42.064Z,18.50
2018-10-15T19:17:10.933Z,18.50
2018-10-15T19:19:39.476Z,18.50
2018-10-15T19:22:08.323Z,18.40
2018-10-15T19:24:37.245Z,18.50
2018-10-15T19:27:06.051Z,18.50
2018-10-15T19:29:34.671Z,18.50
2018-10-15T19:32:03.557Z,18.50
2018-10-15T19:34:32.379Z,18.40
2018-10-15T19:37:01.596Z,18.40
2018-10-15T19:39:31.348Z,18.30
2018-10-15T19:42:00.358Z,18.40
2018-10-15T19:44:29.261Z,18.40
2018-10-15T19:46:58.484Z,18.30
2018-10-15T19:49:27.122Z,18.30
2018-10-15T19:51:55.803Z,18.30
2018-10-15T19:54:24.711Z,18.20
2018-10-15T19:56:53.366Z,18.20
2018-10-15T19:59:22.374Z,18.20
2018-10-15T20:01:51.262Z,18.20
2018-10-15T20:04:20.212Z,18.20
2018-10-15T20:06:50.280Z,18.10
2018-10-15T20:09:18.825Z,18.10
2018-10-15T20:11:49.001Z,18.00
2018-10-15T20:14:29.106Z,18.00
2018-10-15T20:16:59.592Z,18.00
2018-10-15T20:19:28.662Z,17.90
2018-10-15T20:22:00.367Z,17.90
2018-10-15T20:24:31.375Z,17.80
2018-10-15T20:27:00.995Z,17.70
2018-10-15T20:29:30.434Z,17.70
2018-10-15T20:32:00.808Z,17.70
2018-10-15T20:34:29.648Z,17.70
2018-10-15T20:36:59.516Z,17.60
2018-10-15T20:42:04.727Z,17.60
2018-10-15T20:44:38.856Z,17.50
2018-10-15T20:49:56.585Z,17.40
2018-10-15T20:58:02.026Z,17.30
2018-10-15T21:00:30.920Z,17.30
2018-10-15T21:02:59.468Z,17.30
2018-10-15T21:05:30.624Z,17.30
2018-10-15T21:08:00.009Z,17.30
2018-10-15T21:10:28.521Z,17.30
2018-10-15T21:12:57.083Z,17.30
2018-10-15T21:15:25.803Z,17.30
2018-10-15T21:17:55.172Z,17.30
2018-10-15T21:23:07.346Z,17.30
2018-10-15T21:25:35.941Z,17.20
2018-10-15T21:28:05.076Z,17.20
2018-10-15T21:30:40.904Z,17.20
2018-10-15T21:33:10.457Z,17.20
2018-10-15T21:35:39.724Z,17.20
2018-10-15T21:38:08.275Z,17.20
2018-10-15T21:40:38.062Z,17.20
2018-10-15T21:43:07.013Z,17.20
2018-10-15T21:45:36.641Z,17.20
2018-10-15T21:48:06.057Z,17.20
2018-10-15T21:50:42.216Z,17.10
2018-10-15T21:53:21.339Z,17.10
2018-10-15T21:55:50.979Z,17.20
2018-10-15T21:58:19.685Z,17.10
2018-10-15T22:00:49.949Z,17.10
2018-10-15T22:03:18.929Z,17.10
2018-10-15T22:05:48.402Z,17.10
2018-10-15T22:08:17.462Z,17.10
2018-10-15T22:10:46.921Z,17.00
2018-10-15T22:13:16.149Z,17.10
2018-10-15T22:15:45.076Z,17.00
2018-10-15T22:18:14.001Z,17.00
2018-10-15T22:20:42.926Z,17.00
2018-10-15T22:23:11.472Z,17.00
2018-10-15T22:25:40.907Z,17.00
2018-10-15T22:28:09.436Z,17.00
2018-10-15T22:30:38.371Z,17.00
2018-10-15T22:33:07.265Z,17.00
2018-10-15T22:35:35.848Z,17.00
2018-10-15T22:38:04.880Z,17.00
2018-10-15T22:40:34.848Z,17.00
2018-10-15T22:43:03.547Z,17.00
2018-10-15T22:45:33.494Z,17.00
2018-10-15T22:48:02.384Z,17.00
2018-10-15T22:50:31.863Z,17.00
2018-10-15T22:53:00.404Z,17.00
2018-10-15T22:55:28.925Z,17.00
2018-10-15T22:57:57.464Z,17.00
2018-10-15T23:00:26.042Z,17.10
2018-10-15T23:02:54.577Z,17.10
2018-10-15T23:05:23.550Z,17.00
2018-10-15T23:07:52.457Z,17.10
2018-10-15T23:10:26.733Z,17.10
2018-10-15T23:12:55.585Z,17.10
2018-10-15T23:15:24.912Z,17.10
2018-10-15T23:17:55.629Z,17.20
2018-10-15T23:20:25.059Z,17.10
2018-10-15T23:22:53.935Z,17.10
2018-10-15T23:25:23.357Z,17.00
2018-10-15T23:27:51.898Z,17.00
2018-10-15T23:30:20.404Z,17.00
2018-10-15T23:32:49.295Z,16.90
2018-10-15T23:35:18.231Z,16.90
2018-10-15T23:37:47.130Z,16.90
2018-10-15T23:40:16.372Z,17.00
2018-10-15T23:42:45.494Z,17.00
2018-10-15T23:45:14.352Z,16.90
2018-10-15T23:47:43.204Z,16.90
2018-10-15T23:50:14.834Z,16.90
2018-10-15T23:55:58.845Z,17.00
2018-10-15T23:58:27.479Z,17.00
